Terminal Aerodrome Forecast
Issued by NWS Detroit/Pontiac, MI

Home | Current Version | Previous Version | Text Only | Print | Product List | Glossary On
Versions: 1 2 3 4 5 6 7 8 9 10 11 12 13 14 15 16 17 18 19 20
000
FTUS43 KDTX 280936 AAA
TAFFNT
TAF AMD
KFNT 280936Z 2810/2906 28005KT 3SM BR SKC
      TEMPO 2810/2812 1/2SM FG VV002
     FM281300 12005KT P6SM SCT035
     FM282000 18010KT P6SM SCT050
     FM290100 12005KT P6SM SKC=

USA.gov is the U.S. government's official web portal to all federal, state and local government web resources and services.